Williamsburg, Pennsylvania
Current Conditions -  °F | °C
As of 8:01 PM on Monday 22 Dec 2014 (Local Time) from KAOO Reporting Station
Haze Haze  
Wind Chill: 24°   Ceiling: 500
Heat Index: 30°   Visibility: 3mi
Dew Point: 30°   Wind: 6mph
Humidity: 100%   Direction: 100°E
Pressure: 30.09"   Gusts: NA
Location:  40.46°N, 78.2°W
Report Text: KAOO 230101Z AUTO 10005KT 3SM BR OVC005 M01/M01 A3009 RMK AO2 CIG 004V008 T10111011
Loading
Personal Weather Stations






























Interactive Weather Map New forecast layout! Learn more

10-Day Weather Forecast

Advertisements
Track Severe Weather on mobile